createdAt,value
2022-09-07T00:00:24.129Z,1003.62
2022-09-07T00:05:28.272Z,1003.68
2022-09-07T00:10:32.423Z,1003.77
2022-09-07T00:15:36.600Z,1003.80
2022-09-07T00:20:40.756Z,1003.69
2022-09-07T00:25:44.909Z,1003.84
2022-09-07T00:30:49.094Z,1003.86
2022-09-07T00:35:53.234Z,1003.76
2022-09-07T00:40:57.379Z,1003.73
2022-09-07T00:46:01.568Z,1003.76
2022-09-07T00:51:05.721Z,1003.92
2022-09-07T00:56:09.857Z,1003.94
2022-09-07T01:01:14.002Z,1003.91
2022-09-07T01:06:18.152Z,1003.95
2022-09-07T01:11:22.379Z,1003.90
2022-09-07T01:16:26.544Z,1003.88
2022-09-07T01:21:30.676Z,1003.95
2022-09-07T01:26:34.829Z,1003.96
2022-09-07T01:31:37.160Z,1003.80
2022-09-07T01:36:41.232Z,1003.70
2022-09-07T01:41:43.520Z,1003.55
2022-09-07T01:46:47.698Z,1003.46
2022-09-07T01:51:51.852Z,1003.36
2022-09-07T01:56:55.988Z,1003.25
2022-09-07T02:02:00.251Z,1003.22
2022-09-07T02:07:04.321Z,1002.93
2022-09-07T02:12:08.477Z,1002.70
2022-09-07T02:17:12.645Z,1002.48
2022-09-07T02:22:16.788Z,1002.08
2022-09-07T02:27:20.945Z,1001.98
2022-09-07T02:32:25.098Z,1001.85
2022-09-07T02:37:29.253Z,1001.97
2022-09-07T02:42:33.448Z,1002.07
2022-09-07T02:47:37.693Z,1002.12
2022-09-07T02:52:41.754Z,1002.29
2022-09-07T02:57:45.881Z,1002.16
2022-09-07T03:07:54.207Z,1002.11
2022-09-07T03:12:58.378Z,1002.18
2022-09-07T03:18:02.585Z,1002.16
2022-09-07T03:23:06.674Z,1002.15
2022-09-07T03:28:10.870Z,1002.25
2022-09-07T03:33:13.120Z,1002.19
2022-09-07T03:38:17.306Z,1002.13
2022-09-07T03:43:21.447Z,1002.19
2022-09-07T03:48:25.599Z,1002.21
2022-09-07T03:53:29.775Z,1002.27
2022-09-07T03:58:33.969Z,1002.27
2022-09-07T04:03:38.106Z,1002.34
2022-09-07T04:08:42.233Z,1002.32
2022-09-07T04:13:46.414Z,1002.29
2022-09-07T04:18:50.652Z,1002.24
2022-09-07T04:23:54.702Z,1002.29
2022-09-07T04:28:58.904Z,1002.43
2022-09-07T04:34:03.033Z,1002.37
2022-09-07T04:39:07.239Z,1002.42
2022-09-07T04:44:16.082Z,1002.33
2022-09-07T04:49:15.535Z,1002.31
2022-09-07T04:54:19.679Z,1002.35
2022-09-07T04:59:23.844Z,1002.35
2022-09-07T05:04:27.980Z,1002.37
2022-09-07T05:09:32.166Z,1002.32
2022-09-07T05:14:36.308Z,1002.35
2022-09-07T05:19:38.612Z,1002.41
2022-09-07T05:24:42.730Z,1002.38
2022-09-07T05:34:52.271Z,1002.40
2022-09-07T05:39:53.412Z,1002.50
2022-09-07T05:44:57.519Z,1002.47
2022-09-07T05:50:01.662Z,1002.57
2022-09-07T05:55:28.416Z,1002.55
2022-09-07T06:00:10.004Z,1002.58
2022-09-07T06:05:14.137Z,1002.62
2022-09-07T06:10:45.349Z,1002.72
2022-09-07T06:15:22.449Z,1002.65
2022-09-07T06:20:26.770Z,1002.70
2022-09-07T06:25:30.825Z,1002.56
2022-09-07T06:30:34.945Z,1002.74
2022-09-07T06:35:39.091Z,1002.66
2022-09-07T06:40:43.255Z,1002.73
2022-09-07T06:45:47.724Z,1002.90
2022-09-07T06:50:51.570Z,1003.03
2022-09-07T06:55:55.796Z,1002.99
2022-09-07T07:01:00.056Z,1003.01
2022-09-07T07:06:04.042Z,1003.07
2022-09-07T07:11:08.233Z,1003.10
2022-09-07T07:16:10.600Z,1003.08
2022-09-07T07:21:14.672Z,1003.00
2022-09-07T07:26:16.920Z,1003.07
2022-09-07T07:31:21.062Z,1003.03
2022-09-07T07:36:25.254Z,1002.98
2022-09-07T07:46:33.607Z,1003.08
2022-09-07T07:56:41.856Z,1003.10
2022-09-07T08:01:46.188Z,1003.18
2022-09-07T08:06:50.233Z,1003.25
2022-09-07T08:11:54.391Z,1003.30
2022-09-07T08:16:58.508Z,1003.37
2022-09-07T08:22:02.667Z,1003.45
2022-09-07T08:27:06.834Z,1003.48
2022-09-07T08:32:10.993Z,1003.58
2022-09-07T08:37:15.142Z,1003.59
2022-09-07T08:42:19.299Z,1003.47
2022-09-07T08:52:25.731Z,1003.40
2022-09-07T08:57:28.027Z,1003.55
2022-09-07T09:02:44.103Z,1003.37
2022-09-07T09:07:50.362Z,1003.34
2022-09-07T09:13:01.503Z,1003.36
2022-09-07T09:18:14.449Z,1003.31
2022-09-07T09:23:23.817Z,1003.33
2022-09-07T09:28:33.433Z,1003.37
2022-09-07T09:33:37.290Z,1003.50
2022-09-07T09:38:39.583Z,1003.49
2022-09-07T09:43:43.818Z,1003.58
2022-09-07T09:48:47.871Z,1003.50
2022-09-07T09:53:52.048Z,1003.55
2022-09-07T09:59:05.876Z,1003.47
2022-09-07T10:04:00.950Z,1003.42
2022-09-07T10:09:02.594Z,1003.46
2022-09-07T10:14:06.778Z,1003.44
2022-09-07T10:19:10.910Z,1003.36
2022-09-07T10:24:15.062Z,1003.36
2022-09-07T10:29:19.235Z,1003.40
2022-09-07T10:34:26.821Z,1003.46
2022-09-07T10:39:27.579Z,1003.48
2022-09-07T10:44:31.712Z,1003.42
2022-09-07T10:49:35.868Z,1003.41
2022-09-07T10:54:40.050Z,1003.35
2022-09-07T11:00:08.566Z,1003.29
2022-09-07T11:04:48.332Z,1003.33
2022-09-07T11:09:52.551Z,1003.34
2022-09-07T11:14:56.682Z,1003.46
2022-09-07T11:20:00.819Z,1003.43
2022-09-07T11:25:30.836Z,1003.29
2022-09-07T11:30:09.150Z,1003.29
2022-09-07T11:35:13.301Z,1003.28
2022-09-07T11:45:21.632Z,1003.19
2022-09-07T11:50:23.880Z,1003.23
2022-09-07T11:55:28.011Z,1003.17
2022-09-07T12:00:30.354Z,1003.05
2022-09-07T12:05:34.485Z,1003.06
2022-09-07T12:10:38.635Z,1002.93
2022-09-07T12:15:42.815Z,1003.05
2022-09-07T12:20:46.948Z,1002.93
2022-09-07T12:25:51.087Z,1002.95
2022-09-07T12:30:55.340Z,1002.95
2022-09-07T12:35:59.398Z,1002.85
2022-09-07T12:41:03.629Z,1002.79
2022-09-07T12:46:07.842Z,1002.75
2022-09-07T12:51:11.975Z,1002.82
2022-09-07T12:56:16.674Z,1002.82
2022-09-07T13:01:20.291Z,1002.71
2022-09-07T13:11:28.548Z,1002.61
2022-09-07T13:17:15.972Z,1002.59
2022-09-07T13:21:36.871Z,1002.56
2022-09-07T13:26:41.038Z,1002.54
2022-09-07T13:31:45.268Z,1002.56
2022-09-07T13:36:49.333Z,1002.55
2022-09-07T13:41:53.501Z,1002.40
2022-09-07T13:46:55.760Z,1002.38
2022-09-07T13:51:59.917Z,1002.31
2022-09-07T13:57:02.194Z,1002.28
2022-09-07T14:02:06.417Z,1002.33
2022-09-07T14:07:10.491Z,1002.29
2022-09-07T14:12:14.653Z,1002.34
2022-09-07T14:17:18.816Z,1002.35
2022-09-07T14:22:23.003Z,1002.14
2022-09-07T14:27:27.142Z,1002.30
2022-09-07T14:32:31.422Z,1002.36
2022-09-07T14:37:35.459Z,1002.25
2022-09-07T14:42:39.650Z,1002.23
2022-09-07T14:47:43.793Z,1002.22
2022-09-07T14:53:34.284Z,1002.17
2022-09-07T15:02:56.284Z,1002.11
2022-09-07T15:13:04.618Z,1002.03
2022-09-07T15:18:09.070Z,1002.04
2022-09-07T15:23:18.030Z,1002.05
2022-09-07T15:33:40.377Z,1001.96
2022-09-07T15:39:01.272Z,1002.01
2022-09-07T15:44:02.684Z,1002.00
2022-09-07T15:49:13.836Z,1001.92
2022-09-07T15:54:16.133Z,1001.91
2022-09-07T15:59:20.238Z,1001.83
2022-09-07T16:04:24.550Z,1001.83
2022-09-07T16:09:28.596Z,1001.75
2022-09-07T16:14:34.977Z,1001.70
2022-09-07T16:19:40.861Z,1001.72
2022-09-07T16:24:41.036Z,1001.76
2022-09-07T16:29:45.180Z,1001.57
2022-09-07T16:34:49.371Z,1001.56
2022-09-07T16:39:53.568Z,1001.47
2022-09-07T16:46:02.653Z,1001.48
2022-09-07T16:50:02.023Z,1001.50
2022-09-07T16:55:06.003Z,1001.42
2022-09-07T17:00:10.172Z,1001.44
2022-09-07T17:05:14.309Z,1001.51
2022-09-07T17:10:18.484Z,1001.42
2022-09-07T17:15:22.664Z,1001.38
2022-09-07T17:20:28.258Z,1001.38
2022-09-07T17:25:33.290Z,1001.42
2022-09-07T17:30:35.119Z,1001.40
2022-09-07T17:35:39.295Z,1001.41
2022-09-07T17:40:41.537Z,1001.37
2022-09-07T17:45:45.767Z,1001.31
2022-09-07T17:50:47.980Z,1001.29
2022-09-07T17:55:52.172Z,1001.39
2022-09-07T18:00:56.310Z,1001.30
2022-09-07T18:06:00.441Z,1001.29
2022-09-07T18:16:08.795Z,1001.45
2022-09-07T18:21:12.911Z,1001.44
2022-09-07T18:26:17.083Z,1001.37
2022-09-07T18:31:21.300Z,1001.44
2022-09-07T18:36:25.440Z,1001.41
2022-09-07T18:41:29.571Z,1001.46
2022-09-07T18:46:34.714Z,1001.41
2022-09-07T18:56:42.038Z,1001.30
2022-09-07T19:01:46.337Z,1001.27
2022-09-07T19:06:50.351Z,1001.29
2022-09-07T19:11:54.539Z,1001.33
2022-09-07T19:16:58.701Z,1001.30
2022-09-07T19:22:02.824Z,1001.32
2022-09-07T19:27:07.008Z,1001.28
2022-09-07T19:32:11.148Z,1001.27
2022-09-07T19:37:13.458Z,1001.38
2022-09-07T19:42:17.607Z,1001.34
2022-09-07T19:47:21.751Z,1001.39
2022-09-07T19:52:25.887Z,1001.42
2022-09-07T19:57:30.119Z,1001.40
2022-09-07T20:02:34.244Z,1001.39
2022-09-07T20:07:38.365Z,1001.27
2022-09-07T20:12:42.551Z,1001.23
2022-09-07T20:17:46.726Z,1001.31
2022-09-07T20:22:50.889Z,1001.23
2022-09-07T20:27:55.007Z,1001.18
2022-09-07T20:32:59.213Z,1001.13
2022-09-07T20:38:03.388Z,1000.95
2022-09-07T20:43:07.504Z,1000.95
2022-09-07T20:48:11.680Z,1001.05
2022-09-07T20:53:15.808Z,1000.99
2022-09-07T20:58:19.970Z,1001.01
2022-09-07T21:03:24.143Z,1000.98
2022-09-07T21:08:28.331Z,1000.96
2022-09-07T21:13:32.590Z,1001.04
2022-09-07T21:18:36.633Z,1001.02
2022-09-07T21:23:40.751Z,1000.97
2022-09-07T21:28:43.052Z,1000.92
2022-09-07T21:33:47.221Z,1000.74
2022-09-07T21:38:49.496Z,1000.62
2022-09-07T21:43:53.615Z,1000.53
2022-09-07T21:48:57.794Z,1000.63
2022-09-07T21:54:01.966Z,1000.66
2022-09-07T21:59:06.127Z,1000.66
2022-09-07T22:04:10.291Z,1000.71
2022-09-07T22:09:14.420Z,1000.56
2022-09-07T22:14:18.575Z,1000.49
2022-09-07T22:19:22.780Z,1000.61
2022-09-07T22:24:26.903Z,1000.61
2022-09-07T22:29:31.097Z,1000.61
2022-09-07T22:34:35.244Z,1000.50
2022-09-07T22:39:39.488Z,1000.52
2022-09-07T22:44:43.545Z,1000.44
2022-09-07T22:49:47.725Z,1000.42
2022-09-07T22:54:51.883Z,1000.44
2022-09-07T22:59:56.034Z,1000.41
2022-09-07T23:05:00.390Z,1000.47
2022-09-07T23:10:04.380Z,1000.38
2022-09-07T23:15:08.518Z,1000.27
2022-09-07T23:20:12.720Z,1000.32
2022-09-07T23:25:14.990Z,1000.23
2022-09-07T23:30:19.174Z,1000.17
2022-09-07T23:35:23.295Z,1000.17
2022-09-07T23:40:27.427Z,1000.17
2022-09-07T23:45:31.591Z,1000.03
2022-09-07T23:50:35.748Z,999.94
2022-09-07T23:55:39.918Z,999.79
